Map

Track Data

SID SEASON NUMBER BASIN SUBBASIN NAME ISO_TIME NATURE LAT LON WMO_WIND WMO_PRES WMO_AGENCY TRACK_TYPE DIST2LAND LANDFALL IFLAG USA_AGENCY USA_ATCF_ID USA_LAT USA_LON USA_RECORD USA_STATUS USA_WIND USA_PRES USA_SSHS USA_R34_NE USA_R34_SE USA_R34_SW USA_R34_NW USA_R50_NE USA_R50_SE USA_R50_SW USA_R50_NW USA_R64_NE USA_R64_SE USA_R64_SW USA_R64_NW USA_POCI USA_ROCI USA_RMW USA_EYE TOKYO_LAT TOKYO_LON TOKYO_GRADE TOKYO_WIND TOKYO_PRES TOKYO_R50_DIR TOKYO_R50_LONG TOKYO_R50_SHORT TOKYO_R30_DIR TOKYO_R30_LONG TOKYO_R30_SHORT TOKYO_LAND CMA_LAT CMA_LON CMA_CAT CMA_WIND CMA_PRES HKO_LAT HKO_LON HKO_CAT HKO_WIND HKO_PRES NEWDELHI_LAT NEWDELHI_LON NEWDELHI_GRADE NEWDELHI_WIND NEWDELHI_PRES NEWDELHI_CI NEWDELHI_DP NEWDELHI_POCI REUNION_LAT REUNION_LON REUNION_TYPE REUNION_WIND REUNION_PRES REUNION_TNUM REUNION_CI REUNION_RMW REUNION_R34_NE REUNION_R34_SE REUNION_R34_SW REUNION_R34_NW REUNION_R50_NE REUNION_R50_SE REUNION_R50_SW REUNION_R50_NW REUNION_R64_NE REUNION_R64_SE REUNION_R64_SW REUNION_R64_NW BOM_LAT BOM_LON BOM_TYPE BOM_WIND BOM_PRES BOM_TNUM BOM_CI BOM_RMW BOM_R34_NE BOM_R34_SE BOM_R34_SW BOM_R34_NW BOM_R50_NE BOM_R50_SE BOM_R50_SW BOM_R50_NW BOM_R64_NE BOM_R64_SE BOM_R64_SW BOM_R64_NW BOM_ROCI BOM_POCI BOM_EYE BOM_POS_METHOD BOM_PRES_METHOD NADI_LAT NADI_LON NADI_CAT NADI_WIND NADI_PRES WELLINGTON_LAT WELLINGTON_LON WELLINGTON_WIND WELLINGTON_PRES DS824_LAT DS824_LON DS824_STAGE DS824_WIND DS824_PRES TD9636_LAT TD9636_LON TD9636_STAGE TD9636_WIND TD9636_PRES TD9635_LAT TD9635_LON TD9635_WIND TD9635_PRES TD9635_ROCI NEUMANN_LAT NEUMANN_LON NEUMANN_CLASS NEUMANN_WIND NEUMANN_PRES MLC_LAT MLC_LON MLC_CLASS MLC_WIND MLC_PRES USA_GUST BOM_GUST BOM_GUST_PER REUNION_GUST REUNION_GUST_PER USA_SEAHGT USA_SEARAD_NE USA_SEARAD_SE USA_SEARAD_SW USA_SEARAD_NW STORM_SPEED STORM_DIR
1905021S10048 1905 4 SI MM NOT_NAMED 1905-01-21 06:00:00 NR -9.50000 48.1000 main 315 286 __________O___ -1 -9.50000 48.1000 7 13 220
1905021S10048 1905 4 SI MM NOT_NAMED 1905-01-21 09:00:00 NR -10.0113 47.6613 main 286 273 __________P___ -1 -10.0113 47.6613 7 14 220
1905021S10048 1905 4 SI MM NOT_NAMED 1905-01-21 12:00:00 NR -10.5279 47.2177 main 281 273 __________P___ -1 -10.5279 47.2177 7 14 220
1905021S10048 1905 4 SI MM NOT_NAMED 1905-01-21 15:00:00 NR -11.0555 46.7652 main 268 268 __________P___ -1 -11.0555 46.7652 7 14 220
1905021S10048 1905 4 SI MM NOT_NAMED 1905-01-21 18:00:00 NR -11.6000 46.3000 main 290 280 __________O___ -1 -11.6000 46.3000 7 14 220
1905021S10048 1905 4 SI MM NOT_NAMED 1905-01-21 21:00:00 NR -12.1601 45.8237 main 282 282 __________P___ -1 -12.1601 45.8237 7 14 220
1905021S10048 1905 4 SI MM NOT_NAMED 1905-01-22 00:00:00 NR -12.7052 45.3609 main 293 293 __________P___ -1 -12.7052 45.3609 7 14 220
1905021S10048 1905 4 SI MM NOT_NAMED 1905-01-22 03:00:00 NR -13.1977 44.9426 main 306 273 __________P___ -1 -13.1977 44.9426 7 12 220
1905021S10048 1905 4 SI MM NOT_NAMED 1905-01-22 06:00:00 NR -13.6000 44.6000 main 273 246 __________O___ -1 -13.6000 44.6000 7 9 220
1905021S10048 1905 4 SI MM NOT_NAMED 1905-01-22 09:00:00 NR -13.8680 44.3618 main 246 239 __________P___ -1 -13.8680 44.3618 7 6 221
1905021S10048 1905 4 SI MM NOT_NAMED 1905-01-22 12:00:00 NR -14.0469 44.2014 main 243 228 __________P___ -1 -14.0469 44.2014 7 4 220
1905021S10048 1905 4 SI MM NOT_NAMED 1905-01-22 15:00:00 NR -14.1775 44.0903 main 228 223 __________P___ -1 -14.1775 44.0903 7 3 217
1905021S10048 1905 4 SI MM NOT_NAMED 1905-01-22 18:00:00 NR -14.3000 44.0000 main 223 214 __________O___ -1 -14.3000 44.0000 7 3 219
1905021S10048 1905 4 SI MM NOT_NAMED 1905-01-22 21:00:00 NR -14.4140 43.8893 main 219 208 __________P___ -1 -14.4140 43.8893 7 3 220
1905021S10048 1905 4 SI MM NOT_NAMED 1905-01-23 00:00:00 NR -14.5375 43.7919 main 211 194 __________P___ -1 -14.5375 43.7919 7 4 212
1905021S10048 1905 4 SI MM NOT_NAMED 1905-01-23 03:00:00 NR -14.7172 43.6986 main 194 168 __________P___ -1 -14.7172 43.6986 7 5 202
1905021S10048 1905 4 SI MM NOT_NAMED 1905-01-23 06:00:00 NR -15.0000 43.6000 main 168 139 __________O___ -1 -15.0000 43.6000 7 8 198
1905021S10048 1905 4 SI MM NOT_NAMED 1905-01-23 09:00:00 NR -15.4585 43.4425 main 139 120 __________P___ -1 -15.4585 43.4425 7 11 197
1905021S10048 1905 4 SI MM NOT_NAMED 1905-01-23 12:00:00 NR -16.0177 43.2840 main 122 116 __________P___ -1 -16.0177 43.2840 7 12 193
1905021S10048 1905 4 SI MM NOT_NAMED 1905-01-23 15:00:00 NR -16.6179 43.1583 main 116 91 __________P___ -1 -16.6179 43.1583 7 12 189
1905021S10048 1905 4 SI MM NOT_NAMED 1905-01-23 18:00:00 NR -17.2000 43.1000 main 91 84 __________O___ -1 -17.2000 43.1000 7 11 182
1905021S10048 1905 4 SI MM NOT_NAMED 1905-01-23 21:00:00 NR -17.6826 43.1285 main 87 81 __________P___ -1 -17.6826 43.1285 7 10 172
1905021S10048 1905 4 SI MM NOT_NAMED 1905-01-24 00:00:00 NR -18.1372 43.2298 main 84 64 __________P___ -1 -18.1372 43.2298 7 9 164
1905021S10048 1905 4 SI MM NOT_NAMED 1905-01-24 03:00:00 NR -18.5732 43.3913 main 67 62 __________P___ -1 -18.5732 43.3913 7 9 158
1905021S10048 1905 4 SI MM NOT_NAMED 1905-01-24 06:00:00 NR -19.0000 43.6000 main 63 47 __________O___ -1 -19.0000 43.6000 7 10 154
1905021S10048 1905 4 SI MM NOT_NAMED 1905-01-24 09:00:00 NR -19.4445 43.8356 main 53 31 __________P___ -1 -19.4445 43.8356 7 10 151
1905021S10048 1905 4 SI MM NOT_NAMED 1905-01-24 12:00:00 NR -19.8802 44.1121 main 33 0 __________P___ -1 -19.8802 44.1121 7 10 148
1905021S10048 1905 4 SI MM NOT_NAMED 1905-01-24 15:00:00 NR -20.3008 44.4076 main 0 0 __________P___ -1 -20.3008 44.4076 7 10 146
1905021S10048 1905 4 SI MM NOT_NAMED 1905-01-24 18:00:00 NR -20.7000 44.7000 main 0 0 __________O___ -1 -20.7000 44.7000 7 9 147
1905021S10048 1905 4 SI MM NOT_NAMED 1905-01-24 21:00:00 NR -21.0507 44.9263 main 0 0 __________P___ -1 -21.0507 44.9263 7 8 148
1905021S10048 1905 4 SI MM NOT_NAMED 1905-01-25 00:00:00 NR -21.3841 45.1499 main 0 0 __________P___ -1 -21.3841 45.1499 7 8 147
1905021S10048 1905 4 SI MM NOT_NAMED 1905-01-25 03:00:00 NR -21.7255 45.3984 main 0 0 __________P___ -1 -21.7255 45.3984 7 9 144
1905021S10048 1905 4 SI MM NOT_NAMED 1905-01-25 06:00:00 NR -22.1000 45.7000 main 0 0 __________O___ -1 -22.1000 45.7000 7 10 142
1905021S10048 1905 4 SI MM NOT_NAMED 1905-01-25 09:00:00 NR -22.5474 46.0880 main 0 0 __________P___ -1 -22.5474 46.0880 7 12 140
1905021S10048 1905 4 SI MM NOT_NAMED 1905-01-25 12:00:00 NR -23.0278 46.5320 main 0 0 __________P___ -1 -23.0278 46.5320 7 13 139
1905021S10048 1905 4 SI MM NOT_NAMED 1905-01-25 15:00:00 NR -23.5192 47.0101 main 0 0 __________P___ -1 -23.5192 47.0101 7 13 138
1905021S10048 1905 4 SI MM NOT_NAMED 1905-01-25 18:00:00 NR -24.0000 47.5000 main 0 0 __________O___ -1 -24.0000 47.5000 7 13 136
1905021S10048 1905 4 SI MM NOT_NAMED 1905-01-25 21:00:00 NR -24.4537 47.9831 main 69 69 __________P___ -1 -24.4537 47.9831 7 12 135
1905021S10048 1905 4 SI MM NOT_NAMED 1905-01-26 00:00:00 NR -24.8832 48.4584 main 129 129 __________P___ -1 -24.8832 48.4584 7 12 134
1905021S10048 1905 4 SI MM NOT_NAMED 1905-01-26 03:00:00 NR -25.2961 48.9295 main 183 183 __________P___ -1 -25.2961 48.9295 7 12 134
1905021S10048 1905 4 SI MM NOT_NAMED 1905-01-26 06:00:00 NR -25.7000 49.4000 main 243 __________O___ -1 -25.7000 49.4000 7 12 134

About IBTrACS Database

This database is a web-friendly format of International Best Track Archive for Climate Stewardship (IBTrACS), a global best track data archive curated by NOAA dating back to 1842.

Updated: 2021-10-25